sensor_id;sensor_type;location;lat;lon;timestamp;pressure;altitude;pressure_sealevel;temperature;humidity
47738;BME280;33502;47.182;27.506;2023-02-24T00:01:23;100460.63;;;1.53;100.00
47738;BME280;33502;47.182;27.506;2023-02-24T00:03:58;100457.13;;;1.57;100.00
47738;BME280;33502;47.182;27.506;2023-02-24T00:06:26;100447.56;;;1.58;100.00
47738;BME280;33502;47.182;27.506;2023-02-24T00:09:04;100441.44;;;1.65;100.00
47738;BME280;33502;47.182;27.506;2023-02-24T00:11:31;100444.91;;;1.65;100.00
47738;BME280;33502;47.182;27.506;2023-02-24T00:13:57;100431.88;;;1.61;100.00
47738;BME280;33502;47.182;27.506;2023-02-24T00:16:24;100437.06;;;1.68;100.00
47738;BME280;33502;47.182;27.506;2023-02-24T00:18:50;100431.00;;;1.66;100.00
47738;BME280;33502;47.182;27.506;2023-02-24T00:21:16;100432.72;;;1.66;100.00
47738;BME280;33502;47.182;27.506;2023-02-24T00:23:44;100414.47;;;1.63;100.00
47738;BME280;33502;47.182;27.506;2023-02-24T00:26:12;100424.88;;;1.64;100.00
47738;BME280;33502;47.182;27.506;2023-02-24T00:28:39;100417.91;;;1.71;100.00
47738;BME280;33502;47.182;27.506;2023-02-24T00:31:07;100405.72;;;1.70;100.00
47738;BME280;33502;47.182;27.506;2023-02-24T00:33:39;100399.63;;;1.69;100.00
47738;BME280;33502;47.182;27.506;2023-02-24T00:36:07;100399.63;;;1.69;100.00
47738;BME280;33502;47.182;27.506;2023-02-24T00:38:34;100389.19;;;1.74;100.00
47738;BME280;33502;47.182;27.506;2023-02-24T00:41:10;100394.41;;;1.72;100.00
47738;BME280;33502;47.182;27.506;2023-02-24T00:43:40;100400.53;;;1.65;100.00
47738;BME280;33502;47.182;27.506;2023-02-24T00:46:13;100389.22;;;1.63;100.00
47738;BME280;33502;47.182;27.506;2023-02-24T00:48:43;100391.84;;;1.66;100.00
47738;BME280;33502;47.182;27.506;2023-02-24T00:51:17;100384.88;;;1.67;100.00
47738;BME280;33502;47.182;27.506;2023-02-24T00:53:51;100380.50;;;1.67;100.00
47738;BME280;33502;47.182;27.506;2023-02-24T00:56:21;100378.78;;;1.66;100.00
47738;BME280;33502;47.182;27.506;2023-02-24T00:58:48;100367.44;;;1.69;100.00
47738;BME280;33502;47.182;27.506;2023-02-24T01:01:16;100367.41;;;1.72;100.00
47738;BME280;33502;47.182;27.506;2023-02-24T01:03:43;100366.56;;;1.73;100.00
47738;BME280;33502;47.182;27.506;2023-02-24T01:06:11;100368.31;;;1.69;100.00
47738;BME280;33502;47.182;27.506;2023-02-24T01:08:38;100363.09;;;1.72;100.00
47738;BME280;33502;47.182;27.506;2023-02-24T01:11:08;100368.25;;;1.75;100.00
47738;BME280;33502;47.182;27.506;2023-02-24T01:13:52;100363.03;;;1.79;100.00
47738;BME280;33502;47.182;27.506;2023-02-24T01:16:18;100354.31;;;1.80;100.00
47738;BME280;33502;47.182;27.506;2023-02-24T01:18:45;100349.09;;;1.81;100.00
47738;BME280;33502;47.182;27.506;2023-02-24T01:21:16;100331.66;;;1.85;100.00
47738;BME280;33502;47.182;27.506;2023-02-24T01:23:48;100331.69;;;1.82;100.00
47738;BME280;33502;47.182;27.506;2023-02-24T01:26:15;100338.66;;;1.80;100.00
47738;BME280;33502;47.182;27.506;2023-02-24T01:28:42;100328.25;;;1.73;100.00
47738;BME280;33502;47.182;27.506;2023-02-24T01:31:08;100327.41;;;1.70;100.00
47738;BME280;33502;47.182;27.506;2023-02-24T01:33:34;100331.75;;;1.69;100.00
47738;BME280;33502;47.182;27.506;2023-02-24T01:36:24;100347.38;;;1.75;100.00
47738;BME280;33502;47.182;27.506;2023-02-24T01:38:53;100311.63;;;1.90;100.00
47738;BME280;33502;47.182;27.506;2023-02-24T01:41:22;100323.78;;;1.91;100.00
47738;BME280;33502;47.182;27.506;2023-02-24T01:44:01;100315.97;;;1.88;100.00
47738;BME280;33502;47.182;27.506;2023-02-24T01:46:30;100315.13;;;1.87;100.00
47738;BME280;33502;47.182;27.506;2023-02-24T01:49:01;100310.72;;;1.91;100.00
47738;BME280;33502;47.182;27.506;2023-02-24T01:51:31;100319.41;;;1.93;100.00
47738;BME280;33502;47.182;27.506;2023-02-24T01:53:59;100323.78;;;1.91;100.00
47738;BME280;33502;47.182;27.506;2023-02-24T01:56:27;100315.06;;;1.95;100.00
47738;BME280;33502;47.182;27.506;2023-02-24T01:58:55;100320.25;;;2.01;100.00
47738;BME280;33502;47.182;27.506;2023-02-24T02:01:23;100320.22;;;2.03;100.00
47738;BME280;33502;47.182;27.506;2023-02-24T02:03:54;100308.03;;;1.99;100.00
47738;BME280;33502;47.182;27.506;2023-02-24T02:06:25;100308.94;;;1.99;100.00
47738;BME280;33502;47.182;27.506;2023-02-24T02:08:52;100309.78;;;2.03;100.00
47738;BME280;33502;47.182;27.506;2023-02-24T02:11:18;100306.28;;;2.02;100.00
47738;BME280;33502;47.182;27.506;2023-02-24T02:13:48;100303.66;;;2.08;100.00
47738;BME280;33502;47.182;27.506;2023-02-24T02:25:28;100301.94;;;2.01;100.00
47738;BME280;33502;47.182;27.506;2023-02-24T02:28:51;100294.13;;;1.98;100.00
47738;BME280;33502;47.182;27.506;2023-02-24T02:31:21;100295.03;;;1.94;100.00
47738;BME280;33502;47.182;27.506;2023-02-24T02:37:14;100300.22;;;2.00;100.00
47738;BME280;33502;47.182;27.506;2023-02-24T02:39:52;100286.25;;;2.04;100.00
47738;BME280;33502;47.182;27.506;2023-02-24T02:45:07;100297.53;;;2.11;100.00
47738;BME280;33502;47.182;27.506;2023-02-24T02:47:53;100287.91;;;2.13;100.00
47738;BME280;33502;47.182;27.506;2023-02-24T02:50:35;100279.19;;;2.15;100.00
47738;BME280;33502;47.182;27.506;2023-02-24T02:53:32;100277.47;;;2.14;100.00
47738;BME280;33502;47.182;27.506;2023-02-24T02:56:06;100271.38;;;2.12;100.00
47738;BME280;33502;47.182;27.506;2023-02-24T02:58:37;100283.56;;;2.13;100.00
47738;BME280;33502;47.182;27.506;2023-02-24T03:01:05;100273.09;;;2.13;100.00
47738;BME280;33502;47.182;27.506;2023-02-24T03:03:44;100266.13;;;2.15;100.00
47738;BME280;33502;47.182;27.506;2023-02-24T03:06:16;100267.88;;;2.15;100.00
47738;BME280;33502;47.182;27.506;2023-02-24T03:11:21;100258.31;;;2.12;100.00
47738;BME280;33502;47.182;27.506;2023-02-24T03:13:50;100251.38;;;2.10;100.00
47738;BME280;33502;47.182;27.506;2023-02-24T03:16:21;100257.47;;;2.10;100.00
47738;BME280;33502;47.182;27.506;2023-02-24T03:18:53;100259.19;;;2.11;100.00
47738;BME280;33502;47.182;27.506;2023-02-24T03:21:32;100246.13;;;2.10;100.00
47738;BME280;33502;47.182;27.506;2023-02-24T03:24:01;100247.06;;;2.06;100.00
47738;BME280;33502;47.182;27.506;2023-02-24T03:29:22;100235.75;;;2.07;100.00
47738;BME280;33502;47.182;27.506;2023-02-24T03:37:05;100245.28;;;2.11;100.00
47738;BME280;33502;47.182;27.506;2023-02-24T03:39:32;100224.38;;;2.11;100.00
47738;BME280;33502;47.182;27.506;2023-02-24T03:42:10;100220.91;;;2.09;100.00
47738;BME280;33502;47.182;27.506;2023-02-24T03:44:38;100220.06;;;2.05;100.00
47738;BME280;33502;47.182;27.506;2023-02-24T03:47:04;100213.09;;;2.09;100.00
47738;BME280;33502;47.182;27.506;2023-02-24T03:49:30;100205.25;;;2.07;100.00
47738;BME280;33502;47.182;27.506;2023-02-24T03:57:27;100204.50;;;1.96;100.00
47738;BME280;33502;47.182;27.506;2023-02-24T04:00:13;100199.25;;;1.96;100.00
47738;BME280;33502;47.182;27.506;2023-02-24T04:08:50;100186.22;;;1.96;100.00
47738;BME280;33502;47.182;27.506;2023-02-24T04:11:35;100184.50;;;1.95;100.00
47738;BME280;33502;47.182;27.506;2023-02-24T04:14:39;100181.91;;;1.92;100.00
47738;BME280;33502;47.182;27.506;2023-02-24T04:19:39;100172.31;;;1.91;100.00
47738;BME280;33502;47.182;27.506;2023-02-24T04:22:11;100175.84;;;1.87;100.00
47738;BME280;33502;47.182;27.506;2023-02-24T04:24:41;100152.41;;;1.84;100.00
47738;BME280;33502;47.182;27.506;2023-02-24T04:27:10;100157.63;;;1.81;100.00
47738;BME280;33502;47.182;27.506;2023-02-24T04:29:44;100155.88;;;1.83;100.00
47738;BME280;33502;47.182;27.506;2023-02-24T04:32:17;100145.41;;;1.87;100.00
47738;BME280;33502;47.182;27.506;2023-02-24T04:34:44;100161.09;;;1.86;100.00
47738;BME280;33502;47.182;27.506;2023-02-24T04:37:10;100156.72;;;1.86;100.00
47738;BME280;33502;47.182;27.506;2023-02-24T04:39:36;100148.88;;;1.85;100.00
47738;BME280;33502;47.182;27.506;2023-02-24T04:42:07;100144.50;;;1.87;100.00
47738;BME280;33502;47.182;27.506;2023-02-24T04:44:33;100143.66;;;1.88;100.00
47738;BME280;33502;47.182;27.506;2023-02-24T04:46:59;100140.22;;;1.83;100.00
47738;BME280;33502;47.182;27.506;2023-02-24T04:49:25;100131.56;;;1.77;100.00
47738;BME280;33502;47.182;27.506;2023-02-24T04:51:51;100128.91;;;1.81;100.00
47738;BME280;33502;47.182;27.506;2023-02-24T04:54:19;100130.69;;;1.80;100.00
47738;BME280;33502;47.182;27.506;2023-02-24T04:56:46;100135.91;;;1.79;100.00
47738;BME280;33502;47.182;27.506;2023-02-24T04:59:21;100120.25;;;1.77;100.00
47738;BME280;33502;47.182;27.506;2023-02-24T05:01:47;100116.78;;;1.75;100.00
47738;BME280;33502;47.182;27.506;2023-02-24T05:04:16;100114.19;;;1.72;100.00
47738;BME280;33502;47.182;27.506;2023-02-24T05:06:43;100108.16;;;1.68;100.00
47738;BME280;33502;47.182;27.506;2023-02-24T05:09:14;100109.88;;;1.69;100.00
47738;BME280;33502;47.182;27.506;2023-02-24T05:11:45;100102.91;;;1.70;100.00
47738;BME280;33502;47.182;27.506;2023-02-24T05:14:14;100106.38;;;1.72;100.00
47738;BME280;33502;47.182;27.506;2023-02-24T05:16:42;100108.97;;;1.75;100.00
47738;BME280;33502;47.182;27.506;2023-02-24T05:19:09;100107.19;;;1.80;100.00
47738;BME280;33502;47.182;27.506;2023-02-24T05:21:53;100100.19;;;1.84;100.00
47738;BME280;33502;47.182;27.506;2023-02-24T05:24:25;100100.97;;;1.90;100.00
47738;BME280;33502;47.182;27.506;2023-02-24T05:26:54;100092.28;;;1.88;100.00
47738;BME280;33502;47.182;27.506;2023-02-24T05:29:25;100101.81;;;1.94;100.00
47738;BME280;33502;47.182;27.506;2023-02-24T05:31:52;100098.28;;;1.98;100.00
47738;BME280;33502;47.182;27.506;2023-02-24T05:34:18;100089.50;;;2.02;100.00
47738;BME280;33502;47.182;27.506;2023-02-24T05:36:45;100089.50;;;2.05;100.00
47738;BME280;33502;47.182;27.506;2023-02-24T05:39:11;100105.09;;;2.11;100.00
47738;BME280;33502;47.182;27.506;2023-02-24T05:41:43;100098.09;;;2.13;100.00
47738;BME280;33502;47.182;27.506;2023-02-24T05:44:12;100078.94;;;2.14;100.00
47738;BME280;33502;47.182;27.506;2023-02-24T05:46:40;100083.25;;;2.15;100.00
47738;BME280;33502;47.182;27.506;2023-02-24T05:49:12;100080.59;;;2.20;100.00
47738;BME280;33502;47.182;27.506;2023-02-24T05:51:39;100074.47;;;2.24;100.00
47738;BME280;33502;47.182;27.506;2023-02-24T05:54:12;100064.81;;;2.29;100.00
47738;BME280;33502;47.182;27.506;2023-02-24T05:56:40;100059.56;;;2.31;100.00
47738;BME280;33502;47.182;27.506;2023-02-24T05:59:10;100062.13;;;2.34;100.00
47738;BME280;33502;47.182;27.506;2023-02-24T06:01:39;100055.09;;;2.39;100.00
47738;BME280;33502;47.182;27.506;2023-02-24T06:04:07;100053.31;;;2.43;100.00
47738;BME280;33502;47.182;27.506;2023-02-24T06:06:36;100044.53;;;2.47;100.00
47738;BME280;33502;47.182;27.506;2023-02-24T06:09:08;100041.84;;;2.53;100.00
47738;BME280;33502;47.182;27.506;2023-02-24T06:11:36;100043.50;;;2.59;100.00
47738;BME280;33502;47.182;27.506;2023-02-24T06:14:03;100031.25;;;2.64;100.00
47738;BME280;33502;47.182;27.506;2023-02-24T06:16:36;100025.91;;;2.70;100.00
47738;BME280;33502;47.182;27.506;2023-02-24T06:19:05;100031.97;;;2.73;100.00
47738;BME280;33502;47.182;27.506;2023-02-24T06:21:34;100020.59;;;2.76;100.00
47738;BME280;33502;47.182;27.506;2023-02-24T06:24:00;100028.31;;;2.82;100.00
47738;BME280;33502;47.182;27.506;2023-02-24T06:26:27;100028.16;;;2.93;100.00
47738;BME280;33502;47.182;27.506;2023-02-24T06:28:58;100021.81;;;3.08;100.00
47738;BME280;33502;47.182;27.506;2023-02-24T06:31:25;100028.59;;;3.18;100.00
47738;BME280;33502;47.182;27.506;2023-02-24T06:33:52;100028.34;;;3.33;100.00
47738;BME280;33502;47.182;27.506;2023-02-24T06:36:19;100022.97;;;3.41;100.00
47738;BME280;33502;47.182;27.506;2023-02-24T06:38:45;100021.97;;;3.48;100.00
47738;BME280;33502;47.182;27.506;2023-02-24T06:41:11;100027.19;;;3.48;100.00
47738;BME280;33502;47.182;27.506;2023-02-24T06:43:41;100019.25;;;3.53;100.00
47738;BME280;33502;47.182;27.506;2023-02-24T06:46:10;100019.28;;;3.51;100.00
47738;BME280;33502;47.182;27.506;2023-02-24T06:48:36;100015.88;;;3.48;100.00
47738;BME280;33502;47.182;27.506;2023-02-24T06:51:13;100015.63;;;3.60;100.00
47738;BME280;33502;47.182;27.506;2023-02-24T06:53:41;100024.44;;;3.56;100.00
47738;BME280;33502;47.182;27.506;2023-02-24T06:56:15;100020.88;;;3.59;100.00
47738;BME280;33502;47.182;27.506;2023-02-24T06:58:49;100003.34;;;3.64;100.00
47738;BME280;33502;47.182;27.506;2023-02-24T07:01:26;100006.47;;;3.83;100.00
47738;BME280;33502;47.182;27.506;2023-02-24T07:03:55;100007.00;;;3.99;100.00
47738;BME280;33502;47.182;27.506;2023-02-24T07:06:45;99996.47;;;4.02;100.00
47738;BME280;33502;47.182;27.506;2023-02-24T07:09:14;99988.72;;;4.38;100.00
47738;BME280;33502;47.182;27.506;2023-02-24T07:11:42;99980.44;;;4.55;100.00
47738;BME280;33502;47.182;27.506;2023-02-24T07:14:11;99984.81;;;4.92;100.00
47738;BME280;33502;47.182;27.506;2023-02-24T07:16:38;99974.78;;;5.40;100.00
47738;BME280;33502;47.182;27.506;2023-02-24T07:19:11;99968.50;;;5.46;100.00
47738;BME280;33502;47.182;27.506;2023-02-24T07:21:40;99968.44;;;5.79;100.00
47738;BME280;33502;47.182;27.506;2023-02-24T07:24:12;99971.06;;;5.79;100.00
47738;BME280;33502;47.182;27.506;2023-02-24T07:26:41;99970.47;;;6.02;100.00
47738;BME280;33502;47.182;27.506;2023-02-24T07:29:10;99974.38;;;6.17;100.00
47738;BME280;33502;47.182;27.506;2023-02-24T07:31:37;99954.88;;;6.24;100.00
47738;BME280;33502;47.182;27.506;2023-02-24T07:34:03;99966.38;;;6.21;100.00
47738;BME280;33502;47.182;27.506;2023-02-24T07:36:31;99954.13;;;6.49;100.00
47738;BME280;33502;47.182;27.506;2023-02-24T07:39:04;99945.44;;;6.46;100.00
47738;BME280;33502;47.182;27.506;2023-02-24T07:41:33;99944.63;;;6.71;100.00
47738;BME280;33502;47.182;27.506;2023-02-24T07:43:59;99959.09;;;7.11;100.00
47738;BME280;33502;47.182;27.506;2023-02-24T07:46:28;99959.84;;;7.15;100.00
47738;BME280;33502;47.182;27.506;2023-02-24T07:48:55;99956.16;;;6.94;100.00
47738;BME280;33502;47.182;27.506;2023-02-24T07:51:23;99953.53;;;7.44;100.00
47738;BME280;33502;47.182;27.506;2023-02-24T07:53:51;99941.88;;;7.51;100.00
47738;BME280;33502;47.182;27.506;2023-02-24T07:56:19;99944.63;;;7.95;100.00
47738;BME280;33502;47.182;27.506;2023-02-24T07:58:47;99940.66;;;8.53;100.00
47738;BME280;33502;47.182;27.506;2023-02-24T08:01:17;99937.75;;;8.81;100.00
47738;BME280;33502;47.182;27.506;2023-02-24T08:03:55;99942.47;;;8.52;100.00
47738;BME280;33502;47.182;27.506;2023-02-24T08:06:22;99940.78;;;8.72;100.00
47738;BME280;33502;47.182;27.506;2023-02-24T08:08:53;99927.00;;;9.06;97.18
47738;BME280;33502;47.182;27.506;2023-02-24T08:11:30;99926.41;;;8.79;98.35
47738;BME280;33502;47.182;27.506;2023-02-24T08:14:01;99926.34;;;9.42;94.88
47738;BME280;33502;47.182;27.506;2023-02-24T08:16:28;99930.81;;;8.78;96.92
47738;BME280;33502;47.182;27.506;2023-02-24T08:19:09;99916.34;;;9.49;95.44
47738;BME280;33502;47.182;27.506;2023-02-24T08:21:58;99923.53;;;10.42;88.96
47738;BME280;33502;47.182;27.506;2023-02-24T08:24:57;99919.47;;;10.88;85.06
47738;BME280;33502;47.182;27.506;2023-02-24T08:27:27;99920.94;;;10.94;82.53
47738;BME280;33502;47.182;27.506;2023-02-24T08:29:57;99917.16;;;10.46;86.81
47738;BME280;33502;47.182;27.506;2023-02-24T08:34:50;99908.56;;;9.65;91.95
47738;BME280;33502;47.182;27.506;2023-02-24T08:37:23;99905.00;;;9.66;91.40
47738;BME280;33502;47.182;27.506;2023-02-24T08:39:49;99904.41;;;9.59;92.00
47738;BME280;33502;47.182;27.506;2023-02-24T08:42:19;99895.16;;;9.88;91.01
47738;BME280;33502;47.182;27.506;2023-02-24T08:44:45;99889.59;;;9.36;92.01
47738;BME280;33502;47.182;27.506;2023-02-24T08:47:14;99887.78;;;8.97;95.93
47738;BME280;33502;47.182;27.506;2023-02-24T08:49:45;99894.97;;;8.93;96.67
47738;BME280;33502;47.182;27.506;2023-02-24T08:52:13;99881.75;;;8.73;98.54
47738;BME280;33502;47.182;27.506;2023-02-24T08:54:39;99883.97;;;8.84;100.00
47738;BME280;33502;47.182;27.506;2023-02-24T08:57:12;99889.22;;;8.63;99.10
47738;BME280;33502;47.182;27.506;2023-02-24T08:59:39;99867.31;;;8.61;100.00
47738;BME280;33502;47.182;27.506;2023-02-24T09:02:18;99868.00;;;8.87;100.00
47738;BME280;33502;47.182;27.506;2023-02-24T09:04:50;99869.59;;;8.91;100.00
47738;BME280;33502;47.182;27.506;2023-02-24T09:07:33;99865.81;;;8.96;99.02
47738;BME280;33502;47.182;27.506;2023-02-24T09:10:17;99859.47;;;8.80;99.50
47738;BME280;33502;47.182;27.506;2023-02-24T09:12:44;99859.91;;;8.69;99.73
47738;BME280;33502;47.182;27.506;2023-02-24T09:15:11;99866.66;;;8.76;100.00
47738;BME280;33502;47.182;27.506;2023-02-24T09:17:42;99851.59;;;9.19;99.73
47738;BME280;33502;47.182;27.506;2023-02-24T09:20:13;99864.78;;;9.59;96.36
47738;BME280;33502;47.182;27.506;2023-02-24T09:22:56;99857.78;;;9.18;96.14
47738;BME280;33502;47.182;27.506;2023-02-24T09:25:36;99848.84;;;9.02;98.92
47738;BME280;33502;47.182;27.506;2023-02-24T09:28:15;99844.19;;;9.07;98.88
47738;BME280;33502;47.182;27.506;2023-02-24T09:30:46;99837.44;;;9.20;97.71
47738;BME280;33502;47.182;27.506;2023-02-24T09:35:47;99824.03;;;8.86;100.00
47738;BME280;33502;47.182;27.506;2023-02-24T09:38:16;99827.97;;;8.96;100.00
47738;BME280;33502;47.182;27.506;2023-02-24T09:40:47;99823.63;;;8.74;100.00
47738;BME280;33502;47.182;27.506;2023-02-24T09:43:18;99827.13;;;8.54;100.00
47738;BME280;33502;47.182;27.506;2023-02-24T09:46:00;99817.03;;;8.64;100.00
47738;BME280;33502;47.182;27.506;2023-02-24T09:48:44;99815.94;;;8.70;100.00
47738;BME280;33502;47.182;27.506;2023-02-24T09:51:16;99800.94;;;8.50;100.00
47738;BME280;33502;47.182;27.506;2023-02-24T09:53:52;99797.13;;;8.35;100.00
47738;BME280;33502;47.182;27.506;2023-02-24T09:56:21;99792.50;;;8.41;100.00
47738;BME280;33502;47.182;27.506;2023-02-24T09:59:11;99802.50;;;8.54;100.00
47738;BME280;33502;47.182;27.506;2023-02-24T10:01:57;99778.75;;;8.74;100.00
47738;BME280;33502;47.182;27.506;2023-02-24T10:04:54;99780.72;;;8.69;100.00
47738;BME280;33502;47.182;27.506;2023-02-24T10:07:39;99767.47;;;8.50;100.00
47738;BME280;33502;47.182;27.506;2023-02-24T10:13:00;99755.72;;;8.37;100.00
47738;BME280;33502;47.182;27.506;2023-02-24T10:15:31;99755.16;;;8.51;100.00
47738;BME280;33502;47.182;27.506;2023-02-24T10:18:48;99754.50;;;8.66;100.00
47738;BME280;33502;47.182;27.506;2023-02-24T10:27:13;99722.34;;;8.96;100.00
47738;BME280;33502;47.182;27.506;2023-02-24T10:32:47;99714.06;;;9.04;100.00
47738;BME280;33502;47.182;27.506;2023-02-24T10:35:17;99713.09;;;9.06;100.00
47738;BME280;33502;47.182;27.506;2023-02-24T10:37:43;99707.16;;;9.01;100.00
47738;BME280;33502;47.182;27.506;2023-02-24T10:40:10;99711.16;;;9.10;100.00
47738;BME280;33502;47.182;27.506;2023-02-24T10:42:39;99706.72;;;9.29;100.00
47738;BME280;33502;47.182;27.506;2023-02-24T10:45:15;99694.53;;;9.08;100.00
47738;BME280;33502;47.182;27.506;2023-02-24T10:47:58;99691.59;;;8.95;100.00
47738;BME280;33502;47.182;27.506;2023-02-24T10:50:38;99690.03;;;8.91;100.00
47738;BME280;33502;47.182;27.506;2023-02-24T10:53:13;99688.59;;;8.84;100.00
47738;BME280;33502;47.182;27.506;2023-02-24T10:56:02;99682.84;;;8.94;100.00
47738;BME280;33502;47.182;27.506;2023-02-24T10:58:58;99658.41;;;9.08;100.00
47738;BME280;33502;47.182;27.506;2023-02-24T11:01:49;99666.63;;;8.83;100.00
47738;BME280;33502;47.182;27.506;2023-02-24T11:04:33;99671.13;;;8.81;100.00
47738;BME280;33502;47.182;27.506;2023-02-24T11:07:30;99660.03;;;8.73;100.00
47738;BME280;33502;47.182;27.506;2023-02-24T11:10:14;99653.47;;;8.62;100.00
47738;BME280;33502;47.182;27.506;2023-02-24T11:12:45;99645.25;;;8.50;100.00
47738;BME280;33502;47.182;27.506;2023-02-24T11:15:45;99651.31;;;8.52;100.00
47738;BME280;33502;47.182;27.506;2023-02-24T11:18:31;99657.53;;;8.30;100.00
47738;BME280;33502;47.182;27.506;2023-02-24T11:21:01;99646.25;;;8.27;100.00
47738;BME280;33502;47.182;27.506;2023-02-24T11:26:02;99646.84;;;8.13;100.00
47738;BME280;33502;47.182;27.506;2023-02-24T11:31:13;99623.00;;;8.16;100.00
47738;BME280;33502;47.182;27.506;2023-02-24T11:34:06;99625.88;;;8.30;100.00
47738;BME280;33502;47.182;27.506;2023-02-24T11:37:11;99610.94;;;8.50;100.00
47738;BME280;33502;47.182;27.506;2023-02-24T11:40:04;99615.81;;;8.78;100.00
47738;BME280;33502;47.182;27.506;2023-02-24T11:42:38;99620.97;;;8.81;100.00
47738;BME280;33502;47.182;27.506;2023-02-24T11:48:04;99604.22;;;8.42;100.00
47738;BME280;33502;47.182;27.506;2023-02-24T11:50:43;99599.94;;;8.40;100.00
47738;BME280;33502;47.182;27.506;2023-02-24T11:55:55;99591.69;;;8.27;100.00
47738;BME280;33502;47.182;27.506;2023-02-24T12:01:28;99586.47;;;8.46;100.00
47738;BME280;33502;47.182;27.506;2023-02-24T12:07:19;99577.03;;;8.40;100.00
47738;BME280;33502;47.182;27.506;2023-02-24T12:09:59;99578.31;;;8.71;100.00
47738;BME280;33502;47.182;27.506;2023-02-24T12:12:46;99574.34;;;8.99;100.00
47738;BME280;33502;47.182;27.506;2023-02-24T12:15:25;99579.63;;;8.99;100.00
47738;BME280;33502;47.182;27.506;2023-02-24T12:20:35;99563.03;;;8.78;100.00
47738;BME280;33502;47.182;27.506;2023-02-24T12:23:40;99555.25;;;8.75;100.00
47738;BME280;33502;47.182;27.506;2023-02-24T12:32:00;99544.56;;;8.59;100.00
47738;BME280;33502;47.182;27.506;2023-02-24T12:34:46;99557.03;;;8.55;100.00
47738;BME280;33502;47.182;27.506;2023-02-24T12:43:05;99538.41;;;8.77;100.00
47738;BME280;33502;47.182;27.506;2023-02-24T12:51:05;99531.84;;;9.04;100.00
47738;BME280;33502;47.182;27.506;2023-02-24T12:53:44;99527.22;;;9.26;100.00
47738;BME280;33502;47.182;27.506;2023-02-24T12:59:20;99524.44;;;9.29;100.00
47738;BME280;33502;47.182;27.506;2023-02-24T13:12:28;99504.31;;;9.95;100.00
47738;BME280;33502;47.182;27.506;2023-02-24T13:14:58;99498.59;;;10.03;100.00
47738;BME280;33502;47.182;27.506;2023-02-24T13:17:25;99503.56;;;10.09;100.00
47738;BME280;33502;47.182;27.506;2023-02-24T13:19:53;99487.50;;;9.63;100.00
47738;BME280;33502;47.182;27.506;2023-02-24T13:22:24;99495.00;;;9.19;100.00
47738;BME280;33502;47.182;27.506;2023-02-24T13:24:55;99497.00;;;9.14;100.00
47738;BME280;33502;47.182;27.506;2023-02-24T13:27:34;99503.22;;;9.31;100.00
47738;BME280;33502;47.182;27.506;2023-02-24T13:30:25;99495.81;;;9.55;100.00
47738;BME280;33502;47.182;27.506;2023-02-24T13:33:17;99486.88;;;9.75;100.00
47738;BME280;33502;47.182;27.506;2023-02-24T13:35:47;99484.66;;;9.83;100.00
47738;BME280;33502;47.182;27.506;2023-02-24T13:38:36;99488.63;;;9.92;100.00
47738;BME280;33502;47.182;27.506;2023-02-24T13:43:58;99477.84;;;9.95;100.00
47738;BME280;33502;47.182;27.506;2023-02-24T13:46:28;99477.50;;;9.85;100.00
47738;BME280;33502;47.182;27.506;2023-02-24T13:51:52;99477.22;;;9.74;100.00
47738;BME280;33502;47.182;27.506;2023-02-24T13:54:38;99476.44;;;9.72;100.00
47738;BME280;33502;47.182;27.506;2023-02-24T14:02:41;99454.75;;;8.97;100.00
47738;BME280;33502;47.182;27.506;2023-02-24T14:05:26;99459.22;;;8.77;100.00
47738;BME280;33502;47.182;27.506;2023-02-24T14:07:54;99452.59;;;8.69;100.00
47738;BME280;33502;47.182;27.506;2023-02-24T14:10:23;99456.59;;;8.77;100.00
47738;BME280;33502;47.182;27.506;2023-02-24T14:12:59;99449.91;;;8.70;100.00
47738;BME280;33502;47.182;27.506;2023-02-24T14:15:26;99450.06;;;8.48;100.00
47738;BME280;33502;47.182;27.506;2023-02-24T14:17:57;99450.63;;;8.36;100.00
47738;BME280;33502;47.182;27.506;2023-02-24T14:20:25;99457.13;;;8.29;100.00
47738;BME280;33502;47.182;27.506;2023-02-24T14:22:53;99451.91;;;8.27;100.00
47738;BME280;33502;47.182;27.506;2023-02-24T14:25:21;99448.50;;;8.25;100.00
47738;BME280;33502;47.182;27.506;2023-02-24T14:27:50;99450.53;;;8.20;100.00
47738;BME280;33502;47.182;27.506;2023-02-24T14:32:46;99436.38;;;8.21;100.00
47738;BME280;33502;47.182;27.506;2023-02-24T14:35:24;99426.13;;;8.15;100.00
47738;BME280;33502;47.182;27.506;2023-02-24T14:37:52;99430.69;;;8.11;100.00
47738;BME280;33502;47.182;27.506;2023-02-24T14:40:18;99430.13;;;8.04;100.00
47738;BME280;33502;47.182;27.506;2023-02-24T14:42:48;99420.78;;;7.97;100.00
47738;BME280;33502;47.182;27.506;2023-02-24T14:45:18;99414.03;;;7.92;100.00
47738;BME280;33502;47.182;27.506;2023-02-24T14:47:45;99411.53;;;7.89;100.00
47738;BME280;33502;47.182;27.506;2023-02-24T14:50:23;99413.31;;;7.88;100.00
47738;BME280;33502;47.182;27.506;2023-02-24T14:53:03;99411.75;;;7.84;100.00
47738;BME280;33502;47.182;27.506;2023-02-24T14:55:35;99412.66;;;7.83;100.00
47738;BME280;33502;47.182;27.506;2023-02-24T15:00:45;99403.06;;;7.82;100.00
47738;BME280;33502;47.182;27.506;2023-02-24T15:03:26;99397.78;;;7.82;100.00
47738;BME280;33502;47.182;27.506;2023-02-24T15:05:58;99390.84;;;7.79;100.00
47738;BME280;33502;47.182;27.506;2023-02-24T15:08:35;99394.50;;;7.77;100.00
47738;BME280;33502;47.182;27.506;2023-02-24T15:11:17;99388.44;;;7.75;100.00
47738;BME280;33502;47.182;27.506;2023-02-24T15:14:03;99383.31;;;7.72;100.00
47738;BME280;33502;47.182;27.506;2023-02-24T15:16:52;99386.22;;;7.65;100.00
47738;BME280;33502;47.182;27.506;2023-02-24T15:21:53;99387.66;;;7.54;100.00